createdAt,value
2022-11-01T00:00:10.938Z,9.70
2022-11-01T00:05:14.284Z,9.70
2022-11-01T00:15:18.907Z,9.70
2022-11-01T00:20:21.971Z,9.70
2022-11-01T00:25:23.649Z,9.70
2022-11-01T00:30:25.343Z,9.70
2022-11-01T00:35:28.457Z,9.80
2022-11-01T00:40:30.154Z,9.80
2022-11-01T00:45:31.840Z,9.60
2022-11-01T00:50:34.953Z,9.60
2022-11-01T00:55:36.726Z,9.60
2022-11-01T01:00:38.486Z,9.60
2022-11-01T01:05:41.659Z,9.80
2022-11-01T01:10:43.493Z,9.90
2022-11-01T01:15:45.446Z,9.80
2022-11-01T01:20:48.546Z,9.70
2022-11-01T01:25:50.257Z,9.80
2022-11-01T01:30:52.011Z,9.80
2022-11-01T01:35:55.176Z,9.80
2022-11-01T01:41:02.324Z,9.80
2022-11-01T01:46:04.322Z,9.80
2022-11-01T01:51:11.139Z,9.80
2022-11-01T01:56:17.652Z,9.80
2022-11-01T02:01:19.507Z,9.80
2022-11-01T02:11:26.325Z,9.90
2022-11-01T02:16:38.715Z,10.00
2022-11-01T02:22:06.620Z,9.90
2022-11-01T02:27:17.779Z,10.00
2022-11-01T02:32:26.604Z,9.90
2022-11-01T02:37:33.753Z,10.00
2022-11-01T02:42:38.417Z,10.00
2022-11-01T02:47:41.755Z,10.10
2022-11-01T02:52:43.925Z,10.10
2022-11-01T02:57:47.197Z,10.10
2022-11-01T03:02:54.867Z,10.10
2022-11-01T03:08:01.313Z,10.20
2022-11-01T03:13:13.373Z,10.20
2022-11-01T03:18:25.751Z,10.20
2022-11-01T03:23:34.586Z,10.20
2022-11-01T03:28:40.591Z,10.40
2022-11-01T03:33:46.917Z,10.70
2022-11-01T03:38:53.042Z,11.30
2022-11-01T03:43:55.763Z,11.70
2022-11-01T03:48:58.888Z,11.90
2022-11-01T03:54:00.593Z,12.10
2022-11-01T03:59:02.443Z,12.20
2022-11-01T04:04:05.724Z,12.30
2022-11-01T04:09:07.628Z,12.40
2022-11-01T04:14:09.526Z,12.50
2022-11-01T04:19:12.702Z,12.50
2022-11-01T04:24:14.454Z,12.50
2022-11-01T04:29:16.157Z,12.50
2022-11-01T04:34:19.235Z,12.60
2022-11-01T04:39:20.954Z,12.60
2022-11-01T04:44:22.678Z,12.70
2022-11-01T04:49:25.712Z,12.60
2022-11-01T04:54:45.968Z,12.70
2022-11-01T05:00:23.683Z,12.80
2022-11-01T05:05:40.809Z,12.70
2022-11-01T05:16:20.035Z,12.90
2022-11-01T05:21:23.951Z,12.90
2022-11-01T05:26:25.709Z,12.90
2022-11-01T05:31:27.405Z,12.90
2022-11-01T05:36:30.498Z,12.90
2022-11-01T05:41:32.213Z,13.00
2022-11-01T05:46:33.974Z,13.00
2022-11-01T05:51:37.126Z,12.90
2022-11-01T05:56:38.813Z,12.90
2022-11-01T06:01:40.746Z,12.90
2022-11-01T06:06:43.856Z,12.90
2022-11-01T06:11:45.722Z,13.00
2022-11-01T06:16:47.593Z,13.00
2022-11-01T06:21:50.693Z,13.10
2022-11-01T06:26:52.388Z,13.10
2022-11-01T06:31:54.119Z,13.10
2022-11-01T06:37:55.132Z,13.10
2022-11-01T06:43:01.894Z,13.10
2022-11-01T07:00:25.205Z,13.10
2022-11-01T07:05:30.431Z,13.20
2022-11-01T07:10:36.759Z,13.10
2022-11-01T07:15:38.542Z,13.20
2022-11-01T07:20:59.742Z,13.20
2022-11-01T07:26:10.263Z,13.20
2022-11-01T07:31:12.174Z,13.20
2022-11-01T07:36:19.771Z,13.30
2022-11-01T07:41:21.556Z,13.30
2022-11-01T07:46:26.413Z,13.30
2022-11-01T07:51:29.590Z,13.40
2022-11-01T07:56:33.158Z,13.50
2022-11-01T08:01:35.510Z,13.60
2022-11-01T09:39:19.555Z,14.40
2022-11-01T10:44:01.087Z,14.10
2022-11-01T10:49:17.666Z,14.20
2022-11-01T10:54:23.921Z,14.60
2022-11-01T10:59:41.786Z,14.90
2022-11-01T11:05:19.539Z,15.20
2022-11-01T11:21:39.762Z,15.80
2022-11-01T11:26:56.627Z,16.00
2022-11-01T11:32:00.485Z,16.20
2022-11-01T11:53:38.681Z,16.70
2022-11-01T11:59:16.019Z,16.80
2022-11-01T12:04:18.394Z,16.90
2022-11-01T12:09:42.762Z,17.00
2022-11-01T12:14:46.033Z,17.20
2022-11-01T12:19:47.951Z,17.40
2022-11-01T12:24:52.040Z,17.60
2022-11-01T13:33:20.382Z,17.70
2022-11-01T13:50:09.152Z,17.40
2022-11-01T13:55:22.606Z,17.40
2022-11-01T14:00:40.763Z,17.20
2022-11-01T14:05:45.086Z,17.20
2022-11-01T14:10:50.608Z,17.20
2022-11-01T14:16:22.421Z,17.20
2022-11-01T14:33:05.147Z,16.80
2022-11-01T14:38:29.163Z,16.70
2022-11-01T14:44:29.378Z,16.50
2022-11-01T14:49:26.472Z,16.50
2022-11-01T14:54:35.442Z,16.30
2022-11-01T14:59:37.189Z,16.20
2022-11-01T15:04:44.307Z,16.00
2022-11-01T15:10:06.712Z,15.80
2022-11-01T15:15:14.393Z,15.60
2022-11-01T15:20:22.926Z,15.50
2022-11-01T15:25:26.935Z,15.40
2022-11-01T15:30:30.714Z,15.10
2022-11-01T15:35:32.567Z,14.90
2022-11-01T15:40:45.446Z,14.70
2022-11-01T15:45:51.134Z,14.50
2022-11-01T15:57:38.569Z,14.30
2022-11-01T16:02:45.190Z,14.20
2022-11-01T16:07:47.633Z,14.00
2022-11-01T16:12:52.403Z,13.80
2022-11-01T16:23:57.212Z,13.50
2022-11-01T16:29:00.330Z,13.30
2022-11-01T16:34:02.071Z,13.10
2022-11-01T16:45:12.002Z,12.50
2022-11-01T16:50:16.689Z,12.20
2022-11-01T16:55:20.441Z,12.10
2022-11-01T17:00:25.828Z,12.10
2022-11-01T17:05:33.103Z,12.10
2022-11-01T17:10:34.835Z,12.10
2022-11-01T17:15:41.994Z,12.10
2022-11-01T17:20:47.849Z,12.00
2022-11-01T17:25:52.441Z,12.00
2022-11-01T17:30:55.585Z,12.00
2022-11-01T17:35:58.502Z,12.00
2022-11-01T17:41:02.321Z,12.00
2022-11-01T17:46:13.232Z,12.00
2022-11-01T17:51:15.002Z,11.90
2022-11-01T17:56:16.729Z,11.80
2022-11-01T18:01:20.408Z,11.80
2022-11-01T18:06:30.751Z,11.80
2022-11-01T18:11:50.225Z,11.70
2022-11-01T18:17:23.687Z,11.70
2022-11-01T18:23:33.499Z,11.70
2022-11-01T18:28:35.388Z,11.70
2022-11-01T18:33:59.546Z,11.70
2022-11-01T18:39:12.740Z,11.70
2022-11-01T18:44:14.624Z,11.60
2022-11-01T18:49:17.836Z,11.60
2022-11-01T18:54:27.363Z,11.60
2022-11-01T18:59:34.088Z,11.50
2022-11-01T19:04:41.879Z,11.40
2022-11-01T19:20:51.814Z,11.10
2022-11-01T19:26:00.475Z,11.20
2022-11-01T19:31:07.550Z,11.10
2022-11-01T19:36:29.676Z,11.10
2022-11-01T19:41:44.117Z,11.00
2022-11-01T19:46:46.126Z,10.90
2022-11-01T19:51:59.946Z,10.70
2022-11-01T19:57:18.969Z,10.60
2022-11-01T20:02:26.654Z,10.40
2022-11-01T20:07:30.516Z,10.10
2022-11-01T20:12:32.261Z,10.00
2022-11-01T20:17:34.127Z,9.70
2022-11-01T20:22:37.288Z,9.40
2022-11-01T20:28:10.067Z,9.30
2022-11-01T20:33:36.129Z,9.40
2022-11-01T20:38:39.498Z,9.50
2022-11-01T20:43:41.275Z,9.60
2022-11-01T20:48:43.341Z,9.60
2022-11-01T20:53:46.594Z,9.60
2022-11-01T21:04:01.785Z,9.50
2022-11-01T21:09:12.172Z,9.40
2022-11-01T21:14:18.491Z,9.40
2022-11-01T21:19:21.662Z,9.50
2022-11-01T21:24:27.991Z,9.40
2022-11-01T21:29:29.865Z,9.30
2022-11-01T21:34:31.849Z,9.20
2022-11-01T21:39:44.787Z,9.10
2022-11-01T21:44:54.565Z,9.00
2022-11-01T21:49:56.912Z,8.80
2022-11-01T21:55:00.060Z,8.70
2022-11-01T22:00:01.851Z,8.50
2022-11-01T22:05:04.123Z,8.20
2022-11-01T22:16:08.358Z,8.30
2022-11-01T22:21:10.218Z,8.40
2022-11-01T22:26:12.253Z,8.50
2022-11-01T22:31:17.221Z,8.60
2022-11-01T22:36:25.705Z,8.70
2022-11-01T22:41:32.785Z,9.10
2022-11-01T22:46:45.620Z,9.30
2022-11-01T22:51:49.846Z,9.50
2022-11-01T22:56:57.698Z,9.60
2022-11-01T23:02:22.121Z,9.60
2022-11-01T23:07:39.875Z,9.70
2022-11-01T23:12:41.660Z,9.70
2022-11-01T23:17:44.753Z,9.70
2022-11-01T23:22:46.542Z,9.70
2022-11-01T23:27:48.214Z,9.60
2022-11-01T23:32:51.417Z,9.50
2022-11-01T23:37:56.803Z,9.40
2022-11-01T23:42:58.633Z,9.30
2022-11-01T23:48:02.251Z,9.30
2022-11-01T23:53:09.215Z,9.20
2022-11-01T23:58:16.338Z,9.20
